Time;durP1;ratioP1;P1;durP2;ratioP2;P2;SDS_P1;SDS_P2;PMS_P1;PMS_P2;Temp;Humidity;BMP_temperature;BMP_pressure;BME280_temperature;BME280_humidity;BME280_pressure;Samples;Min_cycle;Max_cycle;Signal;HPM_P1;HPM_P2
2023/01/05 00:01:45;;;;;;;25.92;5.00;;;10.90;99.90;;;;;;5088247;28;20125;-63
2023/01/05 00:04:12;;;;;;;29.38;6.35;;;10.90;99.90;;;;;;5069136;28;20115;-63
2023/01/05 00:06:38;;;;;;;32.88;4.90;;;10.90;99.90;;;;;;5074130;28;20027;-62
2023/01/05 00:09:04;;;;;;;26.60;5.03;;;10.90;99.90;;;;;;5091270;28;20449;-62
2023/01/05 00:22:44;;;;;;;29.52;5.10;;;10.70;99.90;;;;;;5095480;28;20388;-63
2023/01/05 00:25:15;;;;;;;35.42;6.75;;;10.70;99.90;;;;;;5093860;28;20030;-62
2023/01/05 00:27:42;;;;;;;25.38;5.07;;;10.70;99.90;;;;;;5096039;28;20043;-63
2023/01/05 00:30:10;;;;;;;31.60;5.28;;;10.70;99.90;;;;;;5101304;28;20552;-62
2023/01/05 00:32:36;;;;;;;31.27;6.43;;;10.60;99.90;;;;;;5090760;28;20093;-63
2023/01/05 00:35:02;;;;;;;28.10;5.35;;;10.60;99.90;;;;;;5093498;28;20028;-63
2023/01/05 00:37:31;;;;;;;30.73;5.68;;;10.60;99.90;;;;;;5090299;28;20035;-62
2023/01/05 00:39:57;;;;;;;29.33;4.90;;;10.60;99.90;;;;;;5092735;28;20034;-63
2023/01/05 00:42:22;;;;;;;35.53;7.07;;;10.50;99.90;;;;;;5097336;28;20099;-63
2023/01/05 00:44:48;;;;;;;37.20;5.25;;;10.50;99.90;;;;;;5096716;28;20028;-63
2023/01/05 00:47:13;;;;;;;33.65;5.68;;;10.50;99.90;;;;;;5092874;28;20082;-63
2023/01/05 00:49:39;;;;;;;33.88;5.15;;;10.50;99.90;;;;;;5085617;28;20564;-63
2023/01/05 00:52:05;;;;;;;31.80;5.30;;;10.50;99.90;;;;;;5093203;28;20038;-62
2023/01/05 00:54:31;;;;;;;29.77;5.82;;;10.50;99.90;;;;;;5093411;28;20055;-63
2023/01/05 00:56:57;;;;;;;27.83;4.65;;;10.50;99.90;;;;;;5092770;28;20070;-63
2023/01/05 00:59:22;;;;;;;20.15;4.00;;;10.50;99.90;;;;;;5090727;28;20443;-63
2023/01/05 01:01:50;;;;;;;35.70;6.68;;;10.50;99.90;;;;;;5093758;28;20144;-62
2023/01/05 01:04:16;;;;;;;31.55;5.22;;;10.40;99.90;;;;;;5090461;28;20034;-63
2023/01/05 01:06:42;;;;;;;27.40;6.85;;;10.40;99.90;;;;;;5091574;28;20024;-63
2023/01/05 01:09:08;;;;;;;26.50;5.40;;;10.40;99.90;;;;;;5093793;28;20104;-62
2023/01/05 01:11:34;;;;;;;24.45;5.05;;;10.40;99.90;;;;;;5100564;28;20024;-63
2023/01/05 01:13:59;;;;;;;29.48;5.80;;;10.40;99.90;;;;;;5092725;28;20032;-63
2023/01/05 01:16:25;;;;;;;35.95;6.55;;;10.40;99.90;;;;;;5094665;28;20024;-62
2023/01/05 01:18:50;;;;;;;32.22;5.90;;;10.40;99.90;;;;;;5092414;28;20024;-62
2023/01/05 01:21:16;;;;;;;30.55;4.68;;;10.30;99.90;;;;;;5092661;28;20024;-63
2023/01/05 01:23:42;;;;;;;24.77;5.25;;;10.30;99.90;;;;;;5092811;28;20024;-62
2023/01/05 01:26:11;;;;;;;30.73;4.75;;;10.30;99.90;;;;;;5092762;28;20473;-62
2023/01/05 01:28:36;;;;;;;28.67;5.13;;;10.30;99.90;;;;;;5083025;28;20540;-62
2023/01/05 01:31:02;;;;;;;30.83;5.63;;;10.30;99.90;;;;;;5092704;28;20051;-63
2023/01/05 01:33:28;;;;;;;29.17;4.90;;;10.30;99.90;;;;;;5092226;28;20024;-63
2023/01/05 01:35:54;;;;;;;26.27;4.68;;;10.30;99.90;;;;;;5090759;28;20032;-63
2023/01/05 01:38:20;;;;;;;26.92;5.53;;;10.30;99.90;;;;;;5092850;28;20404;-62
2023/01/05 01:40:46;;;;;;;33.55;6.05;;;10.30;99.90;;;;;;5092448;28;20448;-63
2023/01/05 01:43:13;;;;;;;28.38;5.10;;;10.30;99.90;;;;;;5079131;28;20344;-62
2023/01/05 01:45:39;;;;;;;36.28;6.05;;;10.30;99.90;;;;;;5089416;28;20051;-62
2023/01/05 01:48:04;;;;;;;26.63;5.03;;;10.40;99.90;;;;;;5071057;28;20489;-63
2023/01/05 01:50:32;;;;;;;27.45;4.32;;;10.40;99.90;;;;;;5094777;27;20032;-63
2023/01/05 01:53:12;;;;;;;33.55;5.97;;;10.40;99.90;;;;;;5095098;28;20034;-62
2023/01/05 01:55:38;;;;;;;39.45;5.95;;;10.40;99.90;;;;;;5090954;28;20020;-63
2023/01/05 01:58:10;;;;;;;30.40;5.35;;;10.40;99.90;;;;;;5092639;28;20439;-63
2023/01/05 02:00:37;;;;;;;25.88;5.30;;;10.40;99.90;;;;;;5073026;28;20125;-63
2023/01/05 02:03:03;;;;;;;28.10;5.25;;;10.40;99.90;;;;;;5094707;28;20107;-62
2023/01/05 02:05:31;;;;;;;30.08;6.07;;;10.40;99.90;;;;;;5091719;28;20058;-63
2023/01/05 02:07:57;;;;;;;36.08;6.03;;;10.40;99.90;;;;;;5092773;28;20080;-63
2023/01/05 02:10:50;;;;;;;25.40;4.53;;;10.40;99.90;;;;;;5089081;28;20442;-63
2023/01/05 02:13:46;;;;;;;29.95;7.53;;;10.50;99.90;;;;;;5080352;28;20055;-62
2023/01/05 02:16:23;;;;;;;33.22;6.05;;;10.50;99.90;;;;;;5088981;28;20020;-62
2023/01/05 02:19:11;;;;;;;24.27;5.30;;;10.50;99.90;;;;;;5094015;28;20608;-62
2023/01/05 02:22:25;;;;;;;39.15;5.07;;;10.50;99.90;;;;;;5091095;28;20036;-62
2023/01/05 02:25:15;;;;;;;28.35;4.95;;;10.50;99.90;;;;;;5024031;28;20036;-63
2023/01/05 02:28:16;;;;;;;33.20;5.47;;;10.50;99.90;;;;;;5088839;28;20467;-62
2023/01/05 02:30:59;;;;;;;30.33;5.50;;;10.50;99.90;;;;;;5091301;28;20569;-63
2023/01/05 02:33:54;;;;;;;34.90;5.40;;;10.40;99.90;;;;;;5092902;28;20028;-62
2023/01/05 02:36:43;;;;;;;39.13;7.38;;;10.50;99.90;;;;;;5099264;27;20027;-62
2023/01/05 02:39:11;;;;;;;25.70;4.43;;;10.50;99.90;;;;;;5105685;27;20024;-63
2023/01/05 02:42:00;;;;;;;26.67;4.13;;;10.40;99.90;;;;;;5089708;28;20146;-62
2023/01/05 02:44:28;;;;;;;28.85;5.32;;;10.50;99.90;;;;;;5061381;28;20020;-62
2023/01/05 02:47:23;;;;;;;31.90;5.88;;;10.40;99.90;;;;;;5089217;28;20028;-62
2023/01/05 02:49:49;;;;;;;28.40;5.30;;;10.50;99.90;;;;;;5086830;28;20039;-63
2023/01/05 02:52:15;;;;;;;34.67;5.40;;;10.40;99.90;;;;;;5088327;28;20158;-62
2023/01/05 02:54:48;;;;;;;36.17;5.82;;;10.50;99.90;;;;;;5074092;28;20579;-63
2023/01/05 02:57:18;;;;;;;40.83;5.15;;;10.50;99.90;;;;;;5088189;28;20024;-62
2023/01/05 02:59:48;;;;;;;33.05;5.38;;;10.50;99.90;;;;;;5094119;28;20032;-63
2023/01/05 03:02:19;;;;;;;29.65;5.22;;;10.50;99.90;;;;;;5088124;28;20016;-62
2023/01/05 03:05:03;;;;;;;25.27;5.85;;;10.50;99.90;;;;;;5093667;28;20032;-62
2023/01/05 03:07:31;;;;;;;24.75;5.55;;;10.50;99.90;;;;;;5115111;27;20443;-63
2023/01/05 03:13:39;;;;;;;40.08;7.78;;;10.50;99.90;;;;;;5110446;27;20173;-62
2023/01/05 03:15:30;;;;;;;31.70;5.50;;;10.50;99.90;;;;;;5090716;28;20600;-62
2023/01/05 03:18:25;;;;;;;28.45;5.78;;;10.50;99.90;;;;;;5087734;28;20028;-62
2023/01/05 03:20:53;;;;;;;30.10;4.60;;;10.50;99.90;;;;;;5073872;28;20035;-62
2023/01/05 03:37:42;;;;;;;25.33;4.72;;;10.50;99.90;;;;;;5090566;28;20035;-62
2023/01/05 03:40:17;;;;;;;25.63;5.00;;;10.50;99.90;;;;;;5092484;28;20063;-63
2023/01/05 03:42:43;;;;;;;23.67;4.68;;;10.50;99.90;;;;;;5089217;28;20541;-62
2023/01/05 03:45:10;;;;;;;28.88;5.20;;;10.50;99.90;;;;;;5091785;28;20378;-62
2023/01/05 03:47:36;;;;;;;36.45;5.03;;;10.50;99.90;;;;;;5090234;28;20016;-62
2023/01/05 03:50:02;;;;;;;25.27;5.45;;;10.50;99.90;;;;;;5069265;28;20039;-62
2023/01/05 03:52:27;;;;;;;20.50;3.95;;;10.50;99.90;;;;;;5093887;28;20497;-63
2023/01/05 03:54:53;;;;;;;23.33;4.75;;;10.50;99.90;;;;;;5094196;28;20074;-62
2023/01/05 03:57:18;;;;;;;24.35;5.00;;;10.50;99.90;;;;;;5080000;28;20551;-62
2023/01/05 03:59:44;;;;;;;28.75;5.35;;;10.50;99.90;;;;;;5093150;28;20044;-63
2023/01/05 04:02:09;;;;;;;31.23;4.95;;;10.50;99.90;;;;;;5091668;28;20020;-62
2023/01/05 04:04:35;;;;;;;27.77;5.28;;;10.50;99.90;;;;;;5091566;28;20077;-62
2023/01/05 04:07:00;;;;;;;26.52;4.43;;;10.50;99.90;;;;;;5094460;28;20508;-62
2023/01/05 04:09:26;;;;;;;28.45;4.93;;;10.50;99.90;;;;;;5094043;28;20099;-62
2023/01/05 04:11:51;;;;;;;29.00;4.28;;;10.50;99.90;;;;;;5092139;28;20107;-63
2023/01/05 04:14:17;;;;;;;21.60;5.03;;;10.50;99.90;;;;;;5091369;28;20044;-62
2023/01/05 04:16:42;;;;;;;27.88;4.80;;;10.50;99.90;;;;;;5094385;28;20447;-62
2023/01/05 04:19:09;;;;;;;27.27;5.57;;;10.50;99.90;;;;;;5096772;28;20024;-62
2023/01/05 04:21:35;;;;;;;29.02;5.55;;;10.60;99.90;;;;;;5093966;28;20058;-62
2023/01/05 04:24:00;;;;;;;24.45;4.78;;;10.60;99.90;;;;;;5090503;28;20024;-63
2023/01/05 04:26:26;;;;;;;27.77;5.20;;;10.60;99.90;;;;;;5096444;28;20034;-62
2023/01/05 04:28:51;;;;;;;28.52;4.50;;;10.60;99.90;;;;;;5092882;28;20028;-63
2023/01/05 04:31:17;;;;;;;25.23;5.30;;;10.60;99.90;;;;;;5093633;28;20433;-62
2023/01/05 04:33:44;;;;;;;31.77;5.38;;;10.60;99.90;;;;;;5092634;28;20484;-62
2023/01/05 04:36:10;;;;;;;27.98;5.47;;;10.60;99.90;;;;;;5091713;28;20065;-62
2023/01/05 04:38:35;;;;;;;28.52;4.65;;;10.60;99.90;;;;;;5093281;28;20035;-63
2023/01/05 04:41:01;;;;;;;25.30;5.35;;;10.60;99.90;;;;;;5093929;28;20028;-63
2023/01/05 04:43:27;;;;;;;26.60;4.45;;;10.60;99.90;;;;;;5090820;28;20055;-62
2023/01/05 04:45:52;;;;;;;35.90;5.00;;;10.60;99.90;;;;;;5094827;28;20020;-62
2023/01/05 04:48:18;;;;;;;29.27;4.28;;;10.60;99.90;;;;;;5093764;28;20491;-62
2023/01/05 04:50:43;;;;;;;20.35;4.65;;;10.70;99.90;;;;;;5093524;28;20028;-62
2023/01/05 04:53:09;;;;;;;26.55;4.93;;;10.60;99.90;;;;;;5093474;28;20030;-63
2023/01/05 04:55:35;;;;;;;23.40;5.03;;;10.70;99.90;;;;;;5093480;27;20476;-62
2023/01/05 04:58:00;;;;;;;25.23;4.80;;;10.70;99.90;;;;;;5072712;28;20023;-62
2023/01/05 05:00:27;;;;;;;25.75;4.50;;;10.70;99.90;;;;;;5090103;28;20152;-62
2023/01/05 05:02:52;;;;;;;22.83;4.80;;;10.70;99.90;;;;;;5093084;28;20016;-62
2023/01/05 05:05:18;;;;;;;31.90;4.32;;;10.70;99.90;;;;;;5089794;28;20388;-62
2023/01/05 05:07:43;;;;;;;29.85;4.32;;;10.70;99.90;;;;;;5095707;28;20560;-63
2023/01/05 05:10:09;;;;;;;27.65;4.38;;;10.70;99.90;;;;;;5090305;28;20412;-63
2023/01/05 05:12:35;;;;;;;28.02;4.40;;;10.70;99.90;;;;;;5092727;28;20038;-62
2023/01/05 05:15:00;;;;;;;25.73;4.68;;;10.70;99.90;;;;;;5090443;28;20024;-62
2023/01/05 05:17:25;;;;;;;21.63;3.88;;;10.70;99.90;;;;;;5092107;28;20357;-62
2023/01/05 05:19:51;;;;;;;28.70;4.32;;;10.70;99.90;;;;;;5097222;27;20507;-62
2023/01/05 05:22:16;;;;;;;24.15;4.15;;;10.70;99.90;;;;;;5092693;28;20069;-62
2023/01/05 05:24:42;;;;;;;24.95;3.80;;;10.70;99.90;;;;;;5071648;28;20027;-62
2023/01/05 05:27:08;;;;;;;19.50;3.90;;;10.70;99.90;;;;;;5090148;28;20024;-62
2023/01/05 05:29:33;;;;;;;24.30;4.30;;;10.70;99.90;;;;;;5071452;28;20481;-62
2023/01/05 05:31:58;;;;;;;21.85;4.70;;;10.70;99.90;;;;;;5089886;28;20032;-62
2023/01/05 05:34:24;;;;;;;29.73;5.93;;;10.70;99.90;;;;;;5100733;28;20080;-62
2023/01/05 05:36:50;;;;;;;28.15;5.68;;;10.70;99.90;;;;;;5076647;28;20080;-62
2023/01/05 05:39:15;;;;;;;26.33;4.72;;;10.70;99.90;;;;;;5092346;28;20208;-62
2023/01/05 05:41:41;;;;;;;28.58;5.15;;;10.70;99.90;;;;;;5089514;28;20481;-62
2023/01/05 05:44:07;;;;;;;25.95;4.25;;;10.70;99.90;;;;;;5094133;28;20030;-62
2023/01/05 05:46:33;;;;;;;34.30;4.97;;;10.70;99.90;;;;;;5092182;28;20028;-62
2023/01/05 05:48:59;;;;;;;26.67;4.43;;;10.70;99.90;;;;;;5088919;28;20388;-62
2023/01/05 05:51:25;;;;;;;25.60;4.28;;;10.70;99.90;;;;;;5072438;28;20485;-62
2023/01/05 05:53:52;;;;;;;24.40;3.78;;;10.80;99.90;;;;;;5089335;28;20310;-62
2023/01/05 05:56:17;;;;;;;26.13;5.10;;;10.80;99.90;;;;;;5092192;28;20024;-62
2023/01/05 05:58:43;;;;;;;21.45;4.95;;;10.80;99.90;;;;;;5092100;28;20028;-62
2023/01/05 06:01:09;;;;;;;22.48;4.10;;;10.80;99.90;;;;;;5097505;28;20107;-62
2023/01/05 06:03:34;;;;;;;21.77;4.07;;;10.80;99.90;;;;;;5089301;28;20166;-62
2023/01/05 06:06:00;;;;;;;19.90;4.53;;;10.80;99.90;;;;;;5094888;28;20037;-63
2023/01/05 06:08:28;;;;;;;23.98;4.25;;;10.80;99.90;;;;;;5088866;28;20044;-63
2023/01/05 06:10:54;;;;;;;26.60;4.68;;;10.80;99.90;;;;;;5092062;28;20032;-62
2023/01/05 06:13:20;;;;;;;28.65;4.82;;;10.80;99.90;;;;;;5069925;28;20030;-62
2023/01/05 06:15:45;;;;;;;25.58;5.15;;;10.80;99.90;;;;;;5094480;28;20050;-62
2023/01/05 06:18:11;;;;;;;32.58;6.13;;;10.80;99.90;;;;;;5089090;28;20032;-63
2023/01/05 06:20:36;;;;;;;21.92;4.20;;;10.80;99.90;;;;;;5102688;28;20035;-62
2023/01/05 06:23:02;;;;;;;33.58;5.57;;;10.80;99.90;;;;;;5098885;28;20021;-62
2023/01/05 06:25:28;;;;;;;29.33;4.70;;;10.70;99.90;;;;;;5095450;28;20102;-62
2023/01/05 06:27:53;;;;;;;24.25;4.75;;;10.80;99.90;;;;;;5103091;28;20358;-63
2023/01/05 06:30:19;;;;;;;30.75;5.10;;;10.70;99.90;;;;;;5092472;28;20504;-63
2023/01/05 06:32:45;;;;;;;19.77;4.10;;;10.80;99.90;;;;;;5096394;28;20035;-62
2023/01/05 06:35:10;;;;;;;29.45;5.22;;;10.80;99.90;;;;;;5097393;27;20032;-62
2023/01/05 06:37:36;;;;;;;27.88;4.88;;;10.80;99.90;;;;;;5099870;28;20114;-62
2023/01/05 06:40:02;;;;;;;25.52;4.65;;;10.80;99.90;;;;;;5104571;28;20034;-62
2023/01/05 06:42:28;;;;;;;31.92;5.75;;;10.80;99.90;;;;;;5095166;28;20019;-63
2023/01/05 06:44:53;;;;;;;24.63;5.75;;;10.70;99.90;;;;;;5104540;28;20024;-63
2023/01/05 06:47:19;;;;;;;29.92;4.63;;;10.70;99.90;;;;;;5094529;28;20028;-62
2023/01/05 06:49:45;;;;;;;31.58;5.35;;;10.70;99.90;;;;;;5102530;28;20019;-62
2023/01/05 06:52:10;;;;;;;40.05;6.43;;;10.70;99.90;;;;;;5107743;28;20069;-62
2023/01/05 06:54:36;;;;;;;31.10;5.15;;;10.70;99.90;;;;;;5092238;28;20047;-63
2023/01/05 06:57:01;;;;;;;30.30;6.38;;;10.80;99.90;;;;;;5104818;28;20024;-62
2023/01/05 06:59:27;;;;;;;30.13;5.40;;;10.80;99.90;;;;;;5092016;28;20524;-62
2023/01/05 07:01:52;;;;;;;25.45;3.95;;;10.80;99.90;;;;;;5074298;28;20016;-62
2023/01/05 07:04:18;;;;;;;28.85;5.22;;;10.80;99.90;;;;;;5085620;28;20118;-62
2023/01/05 07:06:44;;;;;;;26.52;5.00;;;10.80;99.90;;;;;;5092912;28;20111;-62
2023/01/05 07:09:09;;;;;;;24.42;5.05;;;10.80;99.90;;;;;;5091654;28;20032;-62
2023/01/05 07:11:36;;;;;;;24.50;4.82;;;10.80;99.90;;;;;;5074237;28;20530;-62
2023/01/05 07:14:01;;;;;;;33.08;6.00;;;10.70;99.90;;;;;;5092299;28;20030;-62
2023/01/05 07:16:27;;;;;;;30.30;5.30;;;10.80;99.90;;;;;;5096818;28;20038;-62
2023/01/05 07:18:52;;;;;;;28.25;5.50;;;10.70;99.90;;;;;;5109284;28;20041;-62
2023/01/05 07:21:18;;;;;;;31.52;5.45;;;10.80;99.90;;;;;;5092095;28;20030;-62
2023/01/05 07:23:44;;;;;;;29.85;4.95;;;10.80;99.90;;;;;;5073489;28;20548;-62
2023/01/05 07:26:09;;;;;;;23.98;4.30;;;10.80;99.90;;;;;;5104952;28;20127;-62
2023/01/05 07:28:36;;;;;;;23.75;4.07;;;10.80;99.90;;;;;;5091412;28;20052;-62
2023/01/05 07:31:02;;;;;;;28.77;4.63;;;10.80;99.90;;;;;;5098117;28;20041;-62
2023/01/05 07:33:28;;;;;;;32.35;5.85;;;10.80;99.90;;;;;;5095409;28;20028;-62
2023/01/05 07:35:53;;;;;;;27.35;4.97;;;10.70;99.90;;;;;;5091074;28;20028;-62
2023/01/05 07:38:19;;;;;;;21.80;4.22;;;10.70;99.90;;;;;;5094291;28;20028;-62
2023/01/05 07:40:44;;;;;;;23.08;4.60;;;10.80;99.90;;;;;;5087966;28;20028;-62
2023/01/05 07:43:10;;;;;;;22.65;3.95;;;10.80;99.90;;;;;;5094963;28;20027;-62
2023/01/05 07:45:35;;;;;;;29.25;5.72;;;10.70;99.90;;;;;;5104695;28;20042;-63
2023/01/05 07:48:02;;;;;;;24.25;4.00;;;10.70;99.90;;;;;;5091910;28;20028;-63
2023/01/05 07:50:27;;;;;;;24.77;4.60;;;10.70;99.90;;;;;;5090632;28;20125;-63
2023/01/05 07:52:53;;;;;;;23.92;4.85;;;10.70;99.90;;;;;;5091211;28;20473;-64
2023/01/05 07:55:19;;;;;;;19.23;3.97;;;10.70;99.90;;;;;;5098729;28;20031;-64
2023/01/05 07:57:46;;;;;;;22.63;3.70;;;10.70;99.90;;;;;;5100486;28;20028;-64
2023/01/05 08:00:13;;;;;;;27.88;4.43;;;10.70;99.90;;;;;;5081473;28;20019;-64
2023/01/05 08:02:40;;;;;;;25.05;4.93;;;10.70;99.90;;;;;;5078625;28;20027;-64
2023/01/05 08:05:06;;;;;;;28.80;5.10;;;10.70;99.90;;;;;;5096506;28;20023;-64
2023/01/05 08:07:32;;;;;;;21.60;4.55;;;10.70;99.90;;;;;;5098748;28;20051;-64
2023/01/05 08:15:25;;;;;;;26.80;4.38;;;10.70;99.90;;;;;;5099118;28;20398;-64
2023/01/05 08:17:51;;;;;;;34.40;5.65;;;10.70;99.90;;;;;;5103425;28;20468;-64
2023/01/05 08:20:17;;;;;;;26.30;5.13;;;10.70;99.90;;;;;;5100388;28;20511;-64
2023/01/05 08:22:42;;;;;;;19.35;3.45;;;10.70;99.90;;;;;;5100315;28;20065;-64
2023/01/05 08:25:08;;;;;;;28.42;5.20;;;10.70;99.90;;;;;;5108689;28;20418;-64
2023/01/05 08:27:34;;;;;;;27.13;4.38;;;10.70;99.90;;;;;;5107722;28;20508;-65
2023/01/05 08:29:59;;;;;;;27.50;4.80;;;10.70;99.90;;;;;;5097324;28;20038;-64
2023/01/05 08:32:25;;;;;;;27.88;5.03;;;10.70;99.90;;;;;;5098661;28;20480;-64
2023/01/05 08:34:50;;;;;;;21.40;5.15;;;10.70;99.90;;;;;;5097229;28;20028;-64
2023/01/05 08:37:16;;;;;;;33.65;5.22;;;10.70;99.90;;;;;;5093539;28;20030;-64
2023/01/05 08:39:41;;;;;;;25.10;5.05;;;10.70;99.90;;;;;;5100741;28;20024;-64
2023/01/05 08:42:07;;;;;;;27.70;5.15;;;10.80;99.90;;;;;;5094192;28;20027;-64
2023/01/05 08:44:32;;;;;;;27.35;4.32;;;10.80;99.90;;;;;;5101615;28;20039;-64
2023/01/05 08:46:58;;;;;;;22.60;3.65;;;10.80;99.90;;;;;;5099378;28;20051;-64
2023/01/05 08:49:23;;;;;;;24.13;4.50;;;10.80;99.90;;;;;;5076543;28;20358;-64
2023/01/05 08:51:49;;;;;;;26.80;4.68;;;10.80;99.90;;;;;;5101145;28;20042;-64
2023/01/05 08:54:14;;;;;;;21.73;4.72;;;10.80;99.90;;;;;;5111019;28;20034;-64
2023/01/05 08:56:41;;;;;;;21.25;4.43;;;10.80;99.90;;;;;;5111136;28;20032;-64
2023/01/05 08:59:12;;;;;;;24.42;4.63;;;10.80;99.90;;;;;;5112264;28;20511;-64
2023/01/05 09:01:37;;;;;;;23.77;4.43;;;10.80;99.90;;;;;;5109848;28;20028;-64
2023/01/05 09:04:03;;;;;;;31.48;5.22;;;10.80;99.90;;;;;;5111534;28;20453;-64
2023/01/05 09:06:28;;;;;;;28.17;4.60;;;10.80;99.90;;;;;;5091902;28;20023;-64
2023/01/05 09:08:54;;;;;;;21.63;3.85;;;10.80;99.90;;;;;;5112025;28;20043;-64
2023/01/05 09:11:22;;;;;;;27.48;4.70;;;10.80;99.90;;;;;;5111411;28;20020;-64
2023/01/05 09:13:51;;;;;;;28.77;5.85;;;10.90;99.90;;;;;;5110804;28;20031;-64
2023/01/05 09:16:19;;;;;;;30.80;5.68;;;10.90;99.90;;;;;;5111681;27;20042;-64
2023/01/05 09:18:45;;;;;;;25.55;4.80;;;10.90;99.90;;;;;;5107978;28;20027;-64
2023/01/05 09:21:11;;;;;;;26.77;4.93;;;10.90;99.90;;;;;;5104702;28;20020;-64
2023/01/05 09:23:37;;;;;;;29.02;4.80;;;10.90;99.90;;;;;;5094730;28;20048;-64
2023/01/05 09:26:05;;;;;;;25.42;3.90;;;10.90;99.90;;;;;;5106391;28;20020;-64
2023/01/05 09:28:31;;;;;;;23.63;4.70;;;10.90;99.90;;;;;;5107509;28;20472;-64
2023/01/05 09:30:56;;;;;;;19.83;4.60;;;11.00;99.90;;;;;;5105928;28;20035;-64
2023/01/05 09:33:22;;;;;;;28.30;4.05;;;10.90;99.90;;;;;;5094957;28;20020;-64
2023/01/05 09:35:54;;;;;;;27.73;5.38;;;11.00;99.90;;;;;;5113649;28;20386;-64
2023/01/05 09:38:20;;;;;;;25.98;5.00;;;11.00;99.90;;;;;;5094638;28;20042;-64
2023/01/05 09:40:48;;;;;;;31.25;4.65;;;11.00;99.90;;;;;;5104003;28;20106;-64
2023/01/05 09:43:25;;;;;;;22.55;4.63;;;11.00;99.90;;;;;;5109994;28;20041;-64
2023/01/05 09:45:52;;;;;;;26.65;5.03;;;11.00;99.90;;;;;;5113949;28;20542;-64
2023/01/05 09:48:18;;;;;;;24.17;4.13;;;11.00;99.90;;;;;;5094534;28;20055;-64
2023/01/05 09:50:47;;;;;;;23.60;4.60;;;11.10;99.90;;;;;;5093591;28;20132;-64
2023/01/05 09:53:14;;;;;;;23.92;4.38;;;11.00;99.90;;;;;;5095155;28;20024;-65
2023/01/05 09:55:41;;;;;;;26.23;4.95;;;11.00;99.90;;;;;;5106118;28;20055;-65
2023/01/05 09:58:16;;;;;;;27.92;4.82;;;11.10;99.90;;;;;;5088785;28;20027;-65
2023/01/05 10:00:47;;;;;;;32.25;6.03;;;11.10;99.90;;;;;;5108441;28;20106;-65
2023/01/05 10:03:23;;;;;;;32.38;4.75;;;11.10;99.90;;;;;;5089159;28;20016;-65
2023/01/05 10:05:48;;;;;;;25.73;5.00;;;11.10;99.90;;;;;;5109044;28;20028;-65
2023/01/05 10:08:35;;;;;;;24.58;5.47;;;11.10;99.90;;;;;;5104321;28;20051;-65
2023/01/05 10:14:16;;;;;;;30.80;5.32;;;11.10;99.90;;;;;;5106413;28;20160;-65
2023/01/05 10:16:44;;;;;;;26.50;5.13;;;11.20;99.90;;;;;;5090266;28;20016;-64
2023/01/05 10:19:14;;;;;;;34.85;6.57;;;11.20;99.90;;;;;;5107633;28;20043;-65
2023/01/05 10:21:49;;;;;;;26.98;4.38;;;11.20;99.90;;;;;;5110230;28;20079;-65
2023/01/05 10:24:34;;;;;;;29.08;5.20;;;11.20;99.90;;;;;;5105665;28;20019;-65
2023/01/05 10:27:09;;;;;;;26.80;5.38;;;11.20;99.90;;;;;;5107478;28;20047;-65
2023/01/05 10:29:43;;;;;;;24.38;4.82;;;11.20;99.90;;;;;;5086588;28;20031;-65
2023/01/05 10:32:15;;;;;;;28.52;4.47;;;11.20;99.90;;;;;;5103897;28;20040;-65
2023/01/05 10:34:58;;;;;;;27.85;4.72;;;11.20;99.90;;;;;;5109014;28;20074;-65
2023/01/05 10:37:52;;;;;;;24.30;4.00;;;11.30;99.90;;;;;;5110167;28;20031;-65
2023/01/05 10:40:21;;;;;;;23.15;5.50;;;11.30;99.90;;;;;;5107344;28;20480;-65
2023/01/05 10:43:13;;;;;;;32.73;5.70;;;11.40;99.90;;;;;;5108911;28;20026;-65
2023/01/05 10:45:39;;;;;;;26.52;5.30;;;11.50;99.90;;;;;;5107294;28;20028;-65
2023/01/05 10:48:12;;;;;;;31.08;4.78;;;11.60;99.90;;;;;;5110301;28;20049;-65
2023/01/05 10:50:44;;;;;;;27.08;4.57;;;11.70;99.90;;;;;;5084681;28;20053;-65
2023/01/05 10:53:19;;;;;;;22.42;4.35;;;11.80;99.90;;;;;;5108703;28;20051;-65
2023/01/05 10:56:04;;;;;;;30.45;6.03;;;12.00;99.90;;;;;;5105894;28;20027;-66
2023/01/05 10:58:37;;;;;;;26.02;4.85;;;12.10;99.90;;;;;;5108482;28;20020;-65
2023/01/05 11:01:13;;;;;;;27.75;4.57;;;12.30;99.90;;;;;;5105660;28;20600;-65
2023/01/05 11:03:42;;;;;;;28.70;5.88;;;12.50;99.90;;;;;;5102646;28;20141;-65
2023/01/05 11:06:18;;;;;;;26.70;4.33;;;12.60;99.90;;;;;;5102542;28;20019;-65
2023/01/05 11:08:45;;;;;;;26.88;4.95;;;12.70;99.90;;;;;;5089817;28;20043;-65
2023/01/05 11:11:21;;;;;;;28.50;5.40;;;12.80;99.90;;;;;;5095858;28;20031;-65
2023/01/05 11:13:49;;;;;;;31.98;6.32;;;12.90;99.90;;;;;;5108288;27;20039;-65
2023/01/05 11:16:19;;;;;;;31.58;5.43;;;13.00;99.90;;;;;;5105143;28;20027;-65
2023/01/05 11:18:55;;;;;;;23.90;5.38;;;13.20;99.90;;;;;;5109944;28;20019;-65
2023/01/05 11:21:42;;;;;;;33.03;5.70;;;13.60;99.90;;;;;;5091361;28;20099;-65
2023/01/05 11:24:28;;;;;;;23.00;4.30;;;13.80;99.90;;;;;;5090866;28;20024;-65
2023/01/05 11:26:57;;;;;;;28.52;5.93;;;14.00;99.90;;;;;;5091369;28;20063;-66
2023/01/05 11:29:22;;;;;;;24.17;6.50;;;14.00;99.90;;;;;;5102179;28;20035;-65
2023/01/05 11:32:00;;;;;;;19.33;4.05;;;13.90;99.90;;;;;;5103100;28;20051;-65
2023/01/05 11:34:29;;;;;;;25.10;4.72;;;13.90;99.90;;;;;;5097927;28;20593;-65
2023/01/05 11:37:01;;;;;;;23.65;6.53;;;13.80;99.90;;;;;;5099100;28;20020;-66
2023/01/05 11:39:38;;;;;;;28.85;5.13;;;13.70;99.90;;;;;;5100094;28;20015;-65
2023/01/05 11:42:12;;;;;;;20.73;4.15;;;13.60;99.90;;;;;;5073353;28;20519;-65
2023/01/05 11:44:41;;;;;;;25.70;4.68;;;13.60;99.90;;;;;;5104436;28;20027;-65
2023/01/05 11:47:07;;;;;;;28.15;4.90;;;13.60;99.90;;;;;;5095704;28;20020;-65
2023/01/05 11:49:34;;;;;;;28.25;5.63;;;13.50;99.90;;;;;;5091222;28;20514;-65
2023/01/05 11:51:59;;;;;;;25.80;4.97;;;13.50;99.90;;;;;;5091184;28;20377;-65
2023/01/05 11:54:32;;;;;;;27.67;6.15;;;13.50;99.90;;;;;;5097189;28;20034;-65
2023/01/05 11:57:21;;;;;;;32.00;5.75;;;13.50;99.90;;;;;;5089000;28;20397;-65
2023/01/05 11:59:47;;;;;;;22.27;4.90;;;13.70;99.90;;;;;;5090816;28;20077;-65
2023/01/05 12:02:38;;;;;;;22.50;4.97;;;14.10;99.90;;;;;;5103592;28;20021;-65
2023/01/05 12:05:44;;;;;;;20.50;4.60;;;14.90;99.90;;;;;;5106208;28;20103;-65
2023/01/05 12:08:15;;;;;;;15.45;4.35;;;17.20;99.90;;;;;;5027916;28;20099;-65
2023/01/05 12:11:02;;;;;;;16.10;3.78;;;18.60;99.90;;;;;;5098436;28;20028;-65
2023/01/05 12:13:43;;;;;;;28.15;5.45;;;18.80;98.00;;;;;;5109915;28;20012;-66
2023/01/05 12:16:24;;;;;;;16.73;4.25;;;18.30;96.80;;;;;;5109695;28;20020;-65
2023/01/05 12:19:17;;;;;;;17.83;3.67;;;18.80;96.50;;;;;;5107808;28;20012;-66
2023/01/05 12:21:55;;;;;;;22.40;5.00;;;18.50;95.40;;;;;;5085850;28;20408;-65
2023/01/05 12:24:49;;;;;;;19.02;4.32;;;18.00;94.80;;;;;;5112180;28;20491;-66
2023/01/05 12:27:20;;;;;;;18.23;4.70;;;17.50;95.40;;;;;;5087567;28;20124;-65
2023/01/05 12:30:06;;;;;;;15.90;4.10;;;16.90;96.20;;;;;;5110793;28;20490;-65
2023/01/05 12:32:46;;;;;;;20.02;5.35;;;16.50;97.00;;;;;;5112870;28;20015;-65
2023/01/05 12:35:39;;;;;;;17.85;5.53;;;16.00;97.80;;;;;;5098292;28;20481;-65
2023/01/05 12:38:31;;;;;;;21.30;4.97;;;15.70;98.40;;;;;;5107955;28;20019;-65
2023/01/05 12:41:15;;;;;;;18.92;4.30;;;15.50;99.10;;;;;;5088194;28;20393;-64
2023/01/05 12:44:00;;;;;;;21.27;4.65;;;15.40;99.60;;;;;;5076637;28;20477;-65
2023/01/05 12:46:35;;;;;;;26.27;5.65;;;15.10;99.90;;;;;;5086740;28;20031;-65
2023/01/05 12:49:04;;;;;;;20.02;4.57;;;14.90;99.90;;;;;;5093823;28;20099;-65
2023/01/05 12:51:31;;;;;;;;;;;14.70;99.90;;;;;;5094172;28;20028;-65
2023/01/05 12:54:06;;;;;;;23.27;4.55;;;14.50;99.90;;;;;;5076299;28;19911;-65
2023/01/05 12:56:44;;;;;;;17.77;3.53;;;14.40;99.90;;;;;;5094296;28;20047;-65
2023/01/05 12:59:12;;;;;;;24.33;4.93;;;14.30;99.90;;;;;;5094523;28;20389;-65
2023/01/05 13:01:45;;;;;;;23.25;5.72;;;14.20;99.90;;;;;;5093769;28;20032;-65
2023/01/05 13:04:40;;;;;;;20.52;4.25;;;14.20;99.90;;;;;;5094398;28;20012;-65
2023/01/05 13:07:13;;;;;;;18.60;5.28;;;14.30;99.90;;;;;;5094512;28;20047;-65
2023/01/05 13:09:40;;;;;;;23.95;4.72;;;14.40;99.90;;;;;;5093208;28;20024;-65
2023/01/05 13:12:12;;;;;;;17.15;4.13;;;14.90;99.90;;;;;;5094545;28;20039;-65
2023/01/05 13:14:51;;;;;;;21.75;4.50;;;15.50;99.90;;;;;;5091138;28;20027;-65
2023/01/05 13:17:38;;;;;;;20.80;4.75;;;15.50;99.90;;;;;;5107742;28;20023;-65
2023/01/05 13:20:24;;;;;;;13.82;3.38;;;15.30;99.90;;;;;;5110121;28;20035;-65
2023/01/05 13:22:56;;;;;;;22.73;5.18;;;14.90;99.90;;;;;;5110123;28;20050;-65
2023/01/05 13:25:26;;;;;;;22.48;4.18;;;14.60;99.90;;;;;;5109491;28;20094;-65
2023/01/05 13:27:52;;;;;;;27.58;6.47;;;14.40;99.90;;;;;;5099676;27;20055;-65
2023/01/05 13:30:30;;;;;;;16.83;3.55;;;14.20;99.90;;;;;;5105744;28;20059;-65